createdAt,value
2018-04-13T00:00:29.936Z,18.82
2018-04-13T00:01:29.981Z,18.73
2018-04-13T00:02:30.011Z,18.77
2018-04-13T00:03:30.050Z,18.73
2018-04-13T00:04:30.098Z,18.8
2018-04-13T00:05:30.138Z,18.67
2018-04-13T00:06:30.439Z,18.7
2018-04-13T00:07:30.207Z,18.72
2018-04-13T00:08:30.249Z,18.72
2018-04-13T00:09:30.280Z,18.72
2018-04-13T00:10:30.319Z,18.65
2018-04-13T00:11:30.371Z,18.76
2018-04-13T00:12:30.399Z,18.74
2018-04-13T00:13:30.435Z,18.64
2018-04-13T00:14:30.471Z,18.64
2018-04-13T00:15:30.509Z,18.72
2018-04-13T00:16:30.560Z,18.74
2018-04-13T00:17:30.589Z,18.57
2018-04-13T00:18:30.890Z,18.68
2018-04-13T00:19:30.924Z,18.64
2018-04-13T00:20:30.706Z,18.68
2018-04-13T00:21:30.744Z,18.64
2018-04-13T00:22:30.786Z,18.61
2018-04-13T00:23:30.820Z,18.67
2018-04-13T00:24:30.856Z,18.65
2018-04-13T00:25:31.154Z,18.64
2018-04-13T00:26:30.931Z,18.62
2018-04-13T00:27:30.974Z,18.62
2018-04-13T00:28:31.011Z,18.65
2018-04-13T00:29:31.052Z,18.65
2018-04-13T00:30:31.349Z,18.65
2018-04-13T00:31:31.395Z,18.64
2018-04-13T00:32:31.423Z,18.65
2018-04-13T00:33:31.208Z,18.64
2018-04-13T00:34:31.239Z,18.64
2018-04-13T00:35:31.282Z,18.62
2018-04-13T00:36:31.575Z,18.59
2018-04-13T00:37:31.357Z,18.67
2018-04-13T00:38:31.392Z,18.58
2018-04-13T00:39:31.433Z,18.59
2018-04-13T00:40:31.470Z,18.57
2018-04-13T00:41:31.773Z,18.61
2018-04-13T00:42:31.548Z,18.64
2018-04-13T00:43:31.587Z,18.57
2018-04-13T00:44:31.628Z,18.61
2018-04-13T00:45:31.661Z,18.59
2018-04-13T00:46:31.699Z,18.61
2018-04-13T00:47:31.739Z,18.61
2018-04-13T00:48:31.778Z,18.52
2018-04-13T00:49:31.818Z,18.59
2018-04-13T00:50:31.849Z,18.43
2018-04-13T00:51:31.893Z,18.46
2018-04-13T00:52:31.928Z,18.42
2018-04-13T00:53:31.968Z,18.49
2018-04-13T00:54:32.009Z,18.46
2018-04-13T00:55:32.046Z,18.46
2018-04-13T00:56:32.084Z,18.49
2018-04-13T00:57:32.119Z,18.52
2018-04-13T00:58:32.162Z,18.5
2018-04-13T00:59:32.202Z,18.42
2018-04-13T01:00:32.233Z,18.47
2018-04-13T01:01:32.276Z,18.39
2018-04-13T01:02:32.308Z,18.47
2018-04-13T01:03:32.609Z,18.46
2018-04-13T01:04:32.395Z,18.44
2018-04-13T01:05:32.428Z,18.42
2018-04-13T01:06:32.465Z,18.44
2018-04-13T01:07:32.498Z,18.37
2018-04-13T01:08:33.410Z,18.42
2018-04-13T01:09:32.578Z,18.33
2018-04-13T01:10:32.886Z,18.36
2018-04-13T01:11:32.658Z,18.34
2018-04-13T01:12:32.698Z,18.33
2018-04-13T01:13:32.994Z,18.31
2018-04-13T01:14:32.770Z,18.36
2018-04-13T01:15:33.343Z,18.36
2018-04-13T01:16:32.846Z,18.28
2018-04-13T01:17:32.886Z,18.27
2018-04-13T01:18:32.926Z,18.27
2018-04-13T01:19:33.225Z,18.31
2018-04-13T01:20:33.264Z,18.33
2018-04-13T01:21:33.301Z,18.29
2018-04-13T01:22:33.074Z,18.31
2018-04-13T01:23:33.253Z,18.24
2018-04-13T01:24:33.148Z,18.28
2018-04-13T01:25:33.455Z,18.24
2018-04-13T01:26:33.229Z,18.27
2018-04-13T01:27:33.267Z,18.24
2018-04-13T01:28:33.533Z,18.29
2018-04-13T01:29:33.340Z,18.19
2018-04-13T01:30:33.382Z,18.22
2018-04-13T01:31:33.678Z,18.22
2018-04-13T01:32:33.460Z,18.15
2018-04-13T01:33:33.510Z,18.17
2018-04-13T01:34:33.529Z,18.13
2018-04-13T01:35:33.834Z,18.12
2018-04-13T01:36:33.609Z,18.1
2018-04-13T01:37:33.652Z,18.09
2018-04-13T01:38:33.684Z,18.13
2018-04-13T01:39:33.725Z,18.1
2018-04-13T01:40:33.761Z,18.03
2018-04-13T01:41:33.803Z,18.07
2018-04-13T01:42:33.844Z,18.07
2018-04-13T01:43:33.880Z,18.12
2018-04-13T01:44:33.915Z,18.13
2018-04-13T01:45:33.950Z,18.07
2018-04-13T01:46:33.992Z,18.1
2018-04-13T01:47:34.030Z,17.97
2018-04-13T01:48:34.065Z,18.15
2018-04-13T01:49:34.102Z,18.04
2018-04-13T01:50:34.148Z,17.88
2018-04-13T01:51:34.442Z,18.02
2018-04-13T01:52:34.487Z,17.95
2018-04-13T01:53:34.521Z,17.89
2018-04-13T01:54:34.297Z,17.92
2018-04-13T01:55:34.335Z,17.89
2018-04-13T01:56:34.371Z,18.02
2018-04-13T01:57:34.404Z,17.97
2018-04-13T01:58:34.443Z,18.03
2018-04-13T01:59:34.483Z,18.03
2018-04-13T02:00:35.048Z,17.89
2018-04-13T02:01:34.567Z,17.92
2018-04-13T02:02:34.601Z,17.88
2018-04-13T02:03:34.891Z,17.87
2018-04-13T02:04:34.686Z,17.88
2018-04-13T02:05:34.711Z,17.88
2018-04-13T02:06:35.019Z,17.88
2018-04-13T02:07:34.783Z,17.88
2018-04-13T02:08:34.826Z,17.79
2018-04-13T02:09:34.874Z,17.84
2018-04-13T02:10:34.899Z,17.73
2018-04-13T02:11:34.940Z,17.71
2018-04-13T02:12:34.981Z,17.74
2018-04-13T02:13:35.271Z,17.76
2018-04-13T02:14:35.308Z,17.7
2018-04-13T02:15:35.093Z,17.7
2018-04-13T02:16:35.142Z,17.67
2018-04-13T02:17:35.163Z,17.67
2018-04-13T02:18:35.208Z,17.64
2018-04-13T02:19:35.241Z,17.62
2018-04-13T02:20:35.283Z,17.69
2018-04-13T02:21:35.319Z,17.57
2018-04-13T02:22:35.360Z,17.57
2018-04-13T02:23:35.403Z,17.54
2018-04-13T02:24:35.693Z,17.47
2018-04-13T02:25:35.470Z,17.55
2018-04-13T02:26:35.504Z,17.51
2018-04-13T02:27:35.890Z,17.51
2018-04-13T02:28:35.591Z,17.47
2018-04-13T02:29:35.623Z,17.48
2018-04-13T02:30:35.665Z,17.48
2018-04-13T02:31:35.714Z,17.43
2018-04-13T02:32:36.274Z,17.38
2018-04-13T02:33:36.030Z,17.46
2018-04-13T02:34:36.359Z,17.41
2018-04-13T02:35:35.851Z,17.36
2018-04-13T02:36:35.887Z,17.41
2018-04-13T02:37:36.190Z,17.38
2018-04-13T02:38:35.960Z,17.38
2018-04-13T02:39:36.259Z,17.3
2018-04-13T02:40:36.292Z,17.32
2018-04-13T02:41:36.080Z,17.43
2018-04-13T02:42:36.113Z,17.33
2018-04-13T02:43:36.412Z,17.32
2018-04-13T02:44:36.194Z,17.36
2018-04-13T02:45:36.226Z,17.28
2018-04-13T02:46:36.260Z,17.35
2018-04-13T02:47:36.836Z,17.38
2018-04-13T02:48:36.602Z,17.33
2018-04-13T02:49:36.633Z,17.3
2018-04-13T02:50:36.628Z,17.25
2018-04-13T02:51:36.461Z,17.26
2018-04-13T02:52:36.754Z,17.18
2018-04-13T02:53:36.533Z,17.18
2018-04-13T02:54:36.570Z,17.22
2018-04-13T02:55:36.605Z,17.22
2018-04-13T02:56:36.639Z,17.22
2018-04-13T02:57:36.685Z,17.18
2018-04-13T02:58:37.249Z,17.23
2018-04-13T02:59:36.752Z,17.17
2018-04-13T03:00:36.793Z,17.23
2018-04-13T03:01:36.832Z,17.2
2018-04-13T03:02:36.865Z,17.25
2018-04-13T03:03:37.163Z,17.11
2018-04-13T03:04:36.936Z,17.15
2018-04-13T03:05:36.980Z,17.17
2018-04-13T03:06:37.024Z,17.15
2018-04-13T03:07:37.341Z,17.15
2018-04-13T03:08:37.087Z,17.11
2018-04-13T03:09:37.138Z,17.15
2018-04-13T03:10:37.695Z,17.14
2018-04-13T03:11:37.454Z,17.1
2018-04-13T03:12:37.241Z,17.08
2018-04-13T03:13:37.543Z,17.13
2018-04-13T03:14:37.314Z,17.04
2018-04-13T03:15:37.351Z,17.1
2018-04-13T03:16:37.650Z,17.11
2018-04-13T03:17:37.432Z,17.06
2018-04-13T03:18:37.740Z,17.06
2018-04-13T03:19:37.504Z,17.1
2018-04-13T03:20:37.542Z,17.13
2018-04-13T03:21:37.585Z,17.13
2018-04-13T03:22:37.873Z,17.07
2018-04-13T03:23:37.655Z,17.13
2018-04-13T03:24:37.688Z,17.07
2018-04-13T03:25:37.731Z,17.18
2018-04-13T03:26:37.764Z,17.17
2018-04-13T03:27:37.807Z,17.17
2018-04-13T03:28:38.107Z,17.14
2018-04-13T03:29:37.886Z,17.15
2018-04-13T03:30:38.431Z,17.2
2018-04-13T03:31:38.229Z,17.18
2018-04-13T03:32:38.002Z,17.22
2018-04-13T03:33:38.030Z,17.18
2018-04-13T03:34:38.067Z,17.14
2018-04-13T03:35:38.101Z,17.14
2018-04-13T03:36:38.147Z,17.15
2018-04-13T03:37:38.181Z,17.23
2018-04-13T03:38:38.217Z,17.11
2018-04-13T03:39:38.515Z,17.15
2018-04-13T03:40:38.555Z,17.1
2018-04-13T03:41:38.326Z,17.11
2018-04-13T03:42:38.590Z,17.11
2018-04-13T03:43:38.411Z,17.11
2018-04-13T03:44:38.439Z,17.06
2018-04-13T03:45:38.483Z,17.17
2018-04-13T03:46:38.516Z,17.07
2018-04-13T03:47:38.557Z,17.07
2018-04-13T03:48:38.855Z,17.15
2018-04-13T03:49:38.628Z,17.14
2018-04-13T03:50:38.666Z,17.2
2018-04-13T03:51:38.738Z,17.18
2018-04-13T03:52:38.745Z,17.2
2018-04-13T03:53:38.776Z,17.2
2018-04-13T03:54:38.822Z,17.18
2018-04-13T03:55:38.852Z,17.23
2018-04-13T03:56:38.896Z,17.2
2018-04-13T03:57:38.928Z,17.28
2018-04-13T03:58:39.228Z,17.22
2018-04-13T03:59:39.006Z,17.18
2018-04-13T04:00:39.050Z,17.17
2018-04-13T04:01:39.079Z,17.15
2018-04-13T04:02:39.115Z,17.25
2018-04-13T04:03:39.151Z,17.17
2018-04-13T04:04:39.189Z,17.26
2018-04-13T04:05:39.492Z,17.26
2018-04-13T04:06:39.271Z,17.35
2018-04-13T04:07:39.302Z,17.3
2018-04-13T04:08:39.422Z,17.25
2018-04-13T04:09:39.379Z,17.32
2018-04-13T04:10:39.419Z,17.36
2018-04-13T04:11:39.460Z,17.3
2018-04-13T04:12:39.492Z,17.32
2018-04-13T04:13:39.545Z,17.38
2018-04-13T04:14:39.569Z,17.36
2018-04-13T04:15:39.605Z,17.36
2018-04-13T04:16:39.647Z,17.4
2018-04-13T04:17:39.687Z,17.35
2018-04-13T04:18:39.718Z,17.38
2018-04-13T04:19:39.763Z,17.41
2018-04-13T04:20:39.802Z,17.4
2018-04-13T04:21:39.834Z,17.48
2018-04-13T04:22:40.135Z,17.36
2018-04-13T04:23:39.922Z,17.38
2018-04-13T04:24:39.956Z,17.38
2018-04-13T04:25:39.979Z,17.35
2018-04-13T04:26:40.020Z,17.3
2018-04-13T04:27:40.069Z,17.41
2018-04-13T04:28:40.305Z,17.33
2018-04-13T04:29:40.138Z,17.32
2018-04-13T04:30:40.174Z,17.43
2018-04-13T04:31:40.208Z,17.33
2018-04-13T04:32:40.251Z,17.38
2018-04-13T04:33:40.284Z,17.35
2018-04-13T04:34:40.339Z,17.38
2018-04-13T04:35:40.362Z,17.28
2018-04-13T04:36:40.398Z,17.3
2018-04-13T04:37:40.440Z,17.29
2018-04-13T04:38:40.480Z,17.23
2018-04-13T04:39:40.783Z,17.17
2018-04-13T04:40:40.548Z,17.2
2018-04-13T04:41:40.848Z,17.29
2018-04-13T04:42:40.628Z,17.18
2018-04-13T04:43:40.934Z,17.17
2018-04-13T04:44:40.968Z,17.23
2018-04-13T04:45:41.006Z,17.25
2018-04-13T04:46:40.773Z,17.29
2018-04-13T04:47:40.811Z,17.22
2018-04-13T04:48:41.113Z,17.22
2018-04-13T04:49:40.886Z,17.18
2018-04-13T04:50:40.924Z,17.08
2018-04-13T04:51:40.962Z,17.11
2018-04-13T04:52:41.015Z,17.06
2018-04-13T04:53:41.042Z,17.08
2018-04-13T04:54:41.075Z,17.06
2018-04-13T04:55:41.115Z,17.06
2018-04-13T04:56:41.179Z,17.11
2018-04-13T04:57:41.188Z,17.08
2018-04-13T04:58:41.226Z,17.1
2018-04-13T04:59:41.603Z,17.13
2018-04-13T05:00:41.306Z,17.04
2018-04-13T05:01:41.345Z,17.14
2018-04-13T05:02:41.376Z,17.1
2018-04-13T05:03:41.413Z,17.13
2018-04-13T05:04:41.457Z,17.07
2018-04-13T05:05:41.489Z,17.15
2018-04-13T05:06:41.528Z,17.17
2018-04-13T05:07:41.565Z,17.22
2018-04-13T05:08:41.605Z,17.17
2018-04-13T05:09:41.821Z,17.15
2018-04-13T05:10:41.686Z,17.15
2018-04-13T05:11:41.717Z,17.22
2018-04-13T05:12:41.808Z,17.15
2018-04-13T05:13:41.793Z,17.2
2018-04-13T05:14:41.829Z,17.29
2018-04-13T05:15:41.871Z,17.26
2018-04-13T05:16:41.903Z,17.36
2018-04-13T05:17:42.202Z,17.3
2018-04-13T05:18:41.987Z,17.33
2018-04-13T05:19:42.283Z,17.33
2018-04-13T05:20:42.058Z,17.3
2018-04-13T05:21:42.100Z,17.33
2018-04-13T05:22:42.133Z,17.4
2018-04-13T05:23:42.168Z,17.41
2018-04-13T05:24:42.476Z,17.41
2018-04-13T05:25:42.506Z,17.44
2018-04-13T05:26:42.280Z,17.54
2018-04-13T05:27:42.325Z,17.46
2018-04-13T05:28:42.357Z,17.59
2018-04-13T05:29:42.402Z,17.54
2018-04-13T05:30:42.440Z,17.54
2018-04-13T05:31:42.476Z,17.54
2018-04-13T05:32:42.783Z,17.57
2018-04-13T05:33:42.551Z,17.64
2018-04-13T05:34:42.842Z,17.7
2018-04-13T05:35:42.882Z,17.67
2018-04-13T05:36:42.661Z,17.66
2018-04-13T05:37:42.698Z,17.7
2018-04-13T05:38:42.735Z,17.7
2018-04-13T05:39:42.784Z,17.7
2018-04-13T05:40:42.811Z,17.64
2018-04-13T05:41:42.911Z,17.7
2018-04-13T05:42:42.941Z,17.73
2018-04-13T05:43:42.922Z,17.71
2018-04-13T05:44:43.219Z,17.74
2018-04-13T05:45:43.260Z,17.73
2018-04-13T05:46:43.039Z,17.74
2018-04-13T05:47:43.082Z,17.74
2018-04-13T05:48:43.161Z,17.82
2018-04-13T05:49:43.420Z,17.79
2018-04-13T05:50:43.200Z,17.76
2018-04-13T05:51:43.226Z,17.78
2018-04-13T05:52:43.276Z,17.79
2018-04-13T05:53:43.376Z,17.82
2018-04-13T05:54:43.363Z,17.74
2018-04-13T05:55:43.382Z,17.81
2018-04-13T05:56:43.423Z,17.88
2018-04-13T05:57:43.455Z,17.87
2018-04-13T05:58:43.501Z,17.91
2018-04-13T05:59:43.537Z,17.89
2018-04-13T06:00:43.829Z,17.95
2018-04-13T06:01:43.614Z,17.97
2018-04-13T06:02:43.652Z,17.97
2018-04-13T06:03:43.681Z,17.94
2018-04-13T06:04:43.727Z,17.91
2018-04-13T06:05:43.764Z,17.82
2018-04-13T06:06:43.797Z,17.99
2018-04-13T06:07:43.839Z,18.07
2018-04-13T06:08:43.877Z,17.94
2018-04-13T06:09:43.919Z,18.02
2018-04-13T06:10:43.953Z,18.04
2018-04-13T06:11:43.993Z,18.1
2018-04-13T06:12:44.119Z,18.04
2018-04-13T06:13:44.068Z,18.07
2018-04-13T06:14:44.366Z,18.13
2018-04-13T06:15:44.139Z,18.13
2018-04-13T06:16:44.208Z,18.09
2018-04-13T06:17:44.220Z,18.18
2018-04-13T06:18:44.255Z,18.1
2018-04-13T06:19:44.880Z,18.12
2018-04-13T06:20:44.336Z,18.17
2018-04-13T06:21:44.410Z,18.24
2018-04-13T06:22:44.453Z,18.18
2018-04-13T06:23:44.487Z,18.18
2018-04-13T06:24:44.491Z,18.1
2018-04-13T06:25:44.897Z,18.09
2018-04-13T06:26:44.574Z,18.17
2018-04-13T06:27:44.608Z,18.13
2018-04-13T06:28:44.648Z,18.12
2018-04-13T06:29:44.764Z,18.18
2018-04-13T06:30:44.783Z,18.17
2018-04-13T06:31:44.761Z,18.22
2018-04-13T06:32:44.794Z,18.19
2018-04-13T06:33:44.879Z,18.13
2018-04-13T06:34:44.914Z,18.17
2018-04-13T06:35:45.174Z,18.18
2018-04-13T06:36:44.955Z,18.04
2018-04-13T06:37:45.003Z,18.15
2018-04-13T06:38:45.026Z,18.19
2018-04-13T06:39:45.061Z,18.21
2018-04-13T06:40:45.114Z,18.02
2018-04-13T06:41:45.683Z,18.17
2018-04-13T06:42:45.174Z,18.15
2018-04-13T06:43:46.447Z,18.18
2018-04-13T06:44:45.256Z,18.03
2018-04-13T06:45:45.295Z,18.21
2018-04-13T06:46:45.584Z,18.21
2018-04-13T06:47:45.364Z,18.12
2018-04-13T06:48:45.446Z,18.13
2018-04-13T06:49:45.438Z,18.17
2018-04-13T06:50:45.480Z,18.04
2018-04-13T06:51:45.513Z,18.17
2018-04-13T06:52:45.549Z,18.04
2018-04-13T06:53:47.724Z,18.18
2018-04-13T06:54:45.635Z,18.1
2018-04-13T06:55:45.664Z,18.17
2018-04-13T06:56:46.048Z,18.17
2018-04-13T06:57:45.997Z,18.15
2018-04-13T06:58:46.057Z,18.13
2018-04-13T06:59:45.819Z,18.17
2018-04-13T07:00:46.120Z,18.24
2018-04-13T07:01:45.897Z,18.18
2018-04-13T07:02:45.931Z,18.17
2018-04-13T07:03:45.974Z,18.21
2018-04-13T07:04:46.273Z,18.27
2018-04-13T07:05:46.049Z,18.22
2018-04-13T07:06:46.085Z,18.33
2018-04-13T07:07:46.124Z,18.36
2018-04-13T07:08:46.159Z,18.34
2018-04-13T07:09:46.251Z,18.33
2018-04-13T07:10:46.249Z,18.33
2018-04-13T07:11:46.292Z,18.46
2018-04-13T07:12:46.317Z,18.44
2018-04-13T07:13:46.359Z,18.43
2018-04-13T07:14:46.404Z,18.49
2018-04-13T07:15:46.431Z,18.43
2018-04-13T07:16:46.466Z,18.58
2018-04-13T07:17:46.695Z,18.61
2018-04-13T07:18:46.551Z,18.64
2018-04-13T07:19:46.585Z,18.62
2018-04-13T07:20:46.903Z,18.58
2018-04-13T07:21:46.660Z,18.61
2018-04-13T07:22:46.715Z,18.61
2018-04-13T07:23:46.735Z,18.62
2018-04-13T07:24:46.985Z,18.52
2018-04-13T07:25:46.817Z,18.58
2018-04-13T07:26:46.859Z,18.4
2018-04-13T07:27:46.894Z,18.46
2018-04-13T07:28:46.941Z,18.44
2018-04-13T07:29:47.270Z,18.44
2018-04-13T07:30:47.007Z,18.52
2018-04-13T07:31:47.041Z,18.46
2018-04-13T07:32:48.061Z,18.46
2018-04-13T07:33:47.382Z,18.55
2018-04-13T07:34:47.156Z,18.61
2018-04-13T07:35:47.194Z,18.57
2018-04-13T07:36:47.726Z,18.62
2018-04-13T07:37:47.276Z,18.59
2018-04-13T07:38:47.309Z,18.64
2018-04-13T07:39:47.612Z,18.59
2018-04-13T07:40:47.385Z,18.58
2018-04-13T07:41:47.633Z,18.65
2018-04-13T07:42:47.467Z,18.61
2018-04-13T07:43:47.506Z,18.67
2018-04-13T07:44:47.544Z,18.62
2018-04-13T07:45:47.643Z,18.68
2018-04-13T07:46:47.614Z,18.67
2018-04-13T07:47:47.711Z,18.64
2018-04-13T07:48:48.761Z,18.67
2018-04-13T07:49:47.740Z,18.84
2018-04-13T07:50:47.776Z,18.72
2018-04-13T07:51:47.818Z,18.7
2018-04-13T07:52:47.847Z,18.77
2018-04-13T07:53:47.892Z,18.84
2018-04-13T07:54:48.190Z,18.73
2018-04-13T07:55:47.961Z,18.86
2018-04-13T07:56:48.161Z,18.79
2018-04-13T07:57:48.042Z,18.84
2018-04-13T07:58:48.079Z,18.84
2018-04-13T07:59:48.142Z,18.84
2018-04-13T08:00:48.745Z,18.77
2018-04-13T08:01:48.905Z,18.7
2018-04-13T08:02:48.230Z,18.82
2018-04-13T08:03:48.272Z,18.86
2018-04-13T08:04:48.313Z,18.87
2018-04-13T08:05:48.354Z,18.92
2018-04-13T08:06:48.395Z,19.05
2018-04-13T08:07:48.424Z,19.23
2018-04-13T08:08:48.476Z,19.31
2018-04-13T08:09:48.510Z,19.35
2018-04-13T08:10:48.735Z,19.43
2018-04-13T08:11:48.586Z,19.46
2018-04-13T08:12:48.619Z,19.58
2018-04-13T08:13:48.656Z,19.7
2018-04-13T08:14:48.755Z,19.9
2018-04-13T08:15:48.734Z,19.97
2018-04-13T08:16:48.773Z,20.18
2018-04-13T08:17:48.815Z,20.3
2018-04-13T08:18:48.858Z,20.43
2018-04-13T08:19:48.904Z,20.46
2018-04-13T08:20:48.971Z,20.61
2018-04-13T08:21:48.970Z,20.59
2018-04-13T08:22:49.279Z,20.68
2018-04-13T08:23:49.053Z,20.74
2018-04-13T08:24:49.102Z,20.72
2018-04-13T08:25:49.141Z,20.65
2018-04-13T08:26:49.178Z,20.58
2018-04-13T08:27:49.216Z,20.56
2018-04-13T08:28:49.251Z,20.5
2018-04-13T08:29:49.726Z,20.42
2018-04-13T08:30:49.357Z,20.38
2018-04-13T08:31:49.371Z,20.38
2018-04-13T08:32:49.763Z,20.34
2018-04-13T08:33:49.455Z,20.28
2018-04-13T08:34:49.492Z,20.25
2018-04-13T08:35:49.534Z,20.23
2018-04-13T08:36:50.167Z,20.15
2018-04-13T08:37:49.879Z,20.16
2018-04-13T08:38:49.653Z,20.18
2018-04-13T08:39:49.693Z,20.12
2018-04-13T08:40:49.732Z,20.16
2018-04-13T08:41:49.772Z,20.23
2018-04-13T08:42:49.808Z,20.23
2018-04-13T08:43:49.848Z,20.24
2018-04-13T08:44:50.153Z,20.24
2018-04-13T08:45:50.247Z,20.21
2018-04-13T08:46:50.001Z,20.12
2018-04-13T08:47:50.010Z,20
2018-04-13T08:48:50.669Z,20.03
2018-04-13T08:49:50.348Z,20
2018-04-13T08:50:50.153Z,20.1
2018-04-13T08:51:50.198Z,20.06
2018-04-13T08:52:50.585Z,20.03
2018-04-13T08:53:50.245Z,20.02
2018-04-13T08:54:51.316Z,20.16
2018-04-13T08:55:50.369Z,20.27
2018-04-13T08:56:50.363Z,20.58
2018-04-13T08:57:50.415Z,20.76
2018-04-13T08:58:50.445Z,20.91
2018-04-13T08:59:50.480Z,21.01
2018-04-13T09:00:50.526Z,21.04
2018-04-13T09:01:50.565Z,21.2
2018-04-13T09:02:50.606Z,21.24
2018-04-13T09:03:50.643Z,21.35
2018-04-13T09:04:50.682Z,21.63
2018-04-13T09:05:50.725Z,22.07
2018-04-13T09:06:50.773Z,22.44
2018-04-13T09:07:50.825Z,22.93
2018-04-13T09:08:50.851Z,23.34
2018-04-13T09:09:50.898Z,23.7
2018-04-13T09:10:50.935Z,23.82
2018-04-13T09:11:50.993Z,23.72
2018-04-13T09:12:51.021Z,23.47
2018-04-13T09:13:51.072Z,23.17
2018-04-13T09:14:51.103Z,22.93
2018-04-13T09:15:51.150Z,22.52
2018-04-13T09:16:51.457Z,22.32
2018-04-13T09:17:51.233Z,22.02
2018-04-13T09:18:51.274Z,21.83
2018-04-13T09:19:51.314Z,21.64
2018-04-13T09:20:51.478Z,21.46
2018-04-13T09:21:51.399Z,21.41
2018-04-13T09:22:51.442Z,21.32
2018-04-13T09:23:51.482Z,21.21
2018-04-13T09:24:51.520Z,21.14
2018-04-13T09:25:51.558Z,21.14
2018-04-13T09:26:51.601Z,21.06
2018-04-13T09:27:51.645Z,20.96
2018-04-13T09:28:51.682Z,20.86
2018-04-13T09:29:51.722Z,20.95
2018-04-13T09:30:51.769Z,20.87
2018-04-13T09:31:51.806Z,20.74
2018-04-13T09:32:51.843Z,20.71
2018-04-13T09:33:51.895Z,20.69
2018-04-13T09:34:51.928Z,20.72
2018-04-13T09:35:51.958Z,20.64
2018-04-13T09:36:52.006Z,20.71
2018-04-13T09:37:52.047Z,20.72
2018-04-13T09:38:52.342Z,20.72
2018-04-13T09:39:52.122Z,20.74
2018-04-13T09:40:52.175Z,20.74
2018-04-13T09:41:52.200Z,20.69
2018-04-13T09:42:52.244Z,20.76
2018-04-13T09:43:52.546Z,20.74
2018-04-13T09:44:52.323Z,20.69
2018-04-13T09:45:52.366Z,20.74
2018-04-13T09:46:52.405Z,20.72
2018-04-13T09:47:52.742Z,20.8
2018-04-13T09:48:52.478Z,20.84
2018-04-13T09:49:52.522Z,20.74
2018-04-13T09:50:52.563Z,20.87
2018-04-13T09:51:52.603Z,20.95
2018-04-13T09:52:52.934Z,20.93
2018-04-13T09:53:52.684Z,21.05
2018-04-13T09:54:52.724Z,21.19
2018-04-13T09:55:52.771Z,21.38
2018-04-13T09:56:52.804Z,21.64
2018-04-13T09:57:52.878Z,21.79
2018-04-13T09:58:52.887Z,21.94
2018-04-13T09:59:52.935Z,22.09
2018-04-13T10:00:52.972Z,22.12
2018-04-13T10:01:53.047Z,22.19
2018-04-13T10:02:53.054Z,22.2
2018-04-13T10:03:53.178Z,22.22
2018-04-13T10:04:53.137Z,22.27
2018-04-13T10:05:53.436Z,22.43
2018-04-13T10:06:53.230Z,22.6
2018-04-13T10:07:53.266Z,22.64
2018-04-13T10:08:53.308Z,22.9
2018-04-13T10:09:53.355Z,23.14
2018-04-13T10:10:53.396Z,23.46
2018-04-13T10:11:53.436Z,23.68
2018-04-13T10:12:53.480Z,23.85
2018-04-13T10:13:53.539Z,23.9
2018-04-13T10:14:53.578Z,24.14
2018-04-13T10:15:53.614Z,24.14
2018-04-13T10:16:53.938Z,24.16
2018-04-13T10:17:53.976Z,24.19
2018-04-13T10:18:53.763Z,24.1
2018-04-13T10:19:53.806Z,23.89
2018-04-13T10:20:54.277Z,23.75
2018-04-13T10:21:53.898Z,23.6
2018-04-13T10:22:53.942Z,23.5
2018-04-13T10:23:53.994Z,23.24
2018-04-13T10:24:54.033Z,22.99
2018-04-13T10:25:54.080Z,22.93
2018-04-13T10:26:54.423Z,22.78
2018-04-13T10:27:54.171Z,22.68
2018-04-13T10:28:54.207Z,22.57
2018-04-13T10:29:54.294Z,22.6
2018-04-13T10:30:54.335Z,22.65
2018-04-13T10:31:54.340Z,22.68
2018-04-13T10:32:54.387Z,22.67
2018-04-13T10:33:54.429Z,22.86
2018-04-13T10:34:54.747Z,22.92
2018-04-13T10:35:55.033Z,22.92
2018-04-13T10:36:54.561Z,22.86
2018-04-13T10:37:54.609Z,22.83
2018-04-13T10:38:54.650Z,22.64
2018-04-13T10:39:54.961Z,22.68
2018-04-13T10:40:54.733Z,22.67
2018-04-13T10:41:54.779Z,22.68
2018-04-13T10:42:54.827Z,22.67
2018-04-13T10:43:54.860Z,22.65
2018-04-13T10:44:54.909Z,22.67
2018-04-13T10:45:54.952Z,22.49
2018-04-13T10:46:54.989Z,22.32
2018-04-13T10:47:55.033Z,22.16
2018-04-13T10:48:55.073Z,22.04
2018-04-13T10:49:55.119Z,21.88
2018-04-13T10:50:55.161Z,21.79
2018-04-13T10:51:55.197Z,21.63
2018-04-13T10:52:55.249Z,21.42
2018-04-13T10:53:55.282Z,21.38
2018-04-13T10:54:55.349Z,21.27
2018-04-13T10:55:55.388Z,21.04
2018-04-13T10:56:55.408Z,21.08
2018-04-13T10:57:55.709Z,20.99
2018-04-13T10:58:55.761Z,20.91
2018-04-13T10:59:55.526Z,20.89
2018-04-13T11:00:55.569Z,20.9
2018-04-13T11:01:55.610Z,20.95
2018-04-13T11:02:55.912Z,20.89
2018-04-13T11:03:55.687Z,20.98
2018-04-13T11:04:55.729Z,20.91
2018-04-13T11:05:56.039Z,21.05
2018-04-13T11:06:55.810Z,20.96
2018-04-13T11:07:55.854Z,20.87
2018-04-13T11:08:55.891Z,20.96
2018-04-13T11:09:55.931Z,20.86
2018-04-13T11:10:56.234Z,20.87
2018-04-13T11:11:56.023Z,20.69
2018-04-13T11:12:56.055Z,20.53
2018-04-13T11:13:56.089Z,20.54
2018-04-13T11:14:56.135Z,20.53
2018-04-13T11:15:56.173Z,20.53
2018-04-13T11:16:56.889Z,20.5
2018-04-13T11:17:56.254Z,20.51
2018-04-13T11:18:56.288Z,20.61
2018-04-13T11:19:56.601Z,20.59
2018-04-13T11:20:56.703Z,20.69
2018-04-13T11:21:56.439Z,20.76
2018-04-13T11:22:56.456Z,20.83
2018-04-13T11:23:56.513Z,20.83
2018-04-13T11:24:56.845Z,20.84
2018-04-13T11:25:56.835Z,20.93
2018-04-13T11:26:56.615Z,20.99
2018-04-13T11:27:56.654Z,20.98
2018-04-13T11:28:56.692Z,20.98
2018-04-13T11:29:56.734Z,21.04
2018-04-13T11:30:56.822Z,21.08
2018-04-13T11:31:57.084Z,21.14
2018-04-13T11:32:56.855Z,21.2
2018-04-13T11:33:56.897Z,21.17
2018-04-13T11:34:56.957Z,21.21
2018-04-13T11:35:57.242Z,21.21
2018-04-13T11:36:57.014Z,21.27
2018-04-13T11:37:57.083Z,21.27
2018-04-13T11:38:57.114Z,21.16
2018-04-13T11:39:57.137Z,21.13
2018-04-13T11:40:57.187Z,21.19
2018-04-13T11:41:57.218Z,21.16
2018-04-13T11:42:57.255Z,21.26
2018-04-13T11:43:57.302Z,21.29
2018-04-13T11:44:57.340Z,21.36
2018-04-13T11:45:57.380Z,21.41
2018-04-13T11:46:57.417Z,21.42
2018-04-13T11:47:57.461Z,21.44
2018-04-13T11:48:57.503Z,21.57
2018-04-13T11:49:57.540Z,21.63
2018-04-13T11:50:57.844Z,21.82
2018-04-13T11:51:57.626Z,21.88
2018-04-13T11:52:57.925Z,21.97
2018-04-13T11:53:57.708Z,21.97
2018-04-13T11:54:57.749Z,22.09
2018-04-13T11:55:57.792Z,22.2
2018-04-13T11:56:57.830Z,22.23
2018-04-13T11:57:57.874Z,22.27
2018-04-13T11:58:57.910Z,22.31
2018-04-13T11:59:57.956Z,22.44
2018-04-13T12:00:57.993Z,22.41
2018-04-13T12:01:58.038Z,22.52
2018-04-13T12:02:58.093Z,22.59
2018-04-13T12:03:58.114Z,22.65
2018-04-13T12:04:58.158Z,22.54
2018-04-13T12:05:58.470Z,22.56
2018-04-13T12:06:58.554Z,22.49
2018-04-13T12:07:58.286Z,22.46
2018-04-13T12:08:58.382Z,22.53
2018-04-13T12:09:58.367Z,22.53
2018-04-13T12:10:58.436Z,22.62
2018-04-13T12:11:58.459Z,22.6
2018-04-13T12:12:58.497Z,22.53
2018-04-13T12:13:58.534Z,22.44
2018-04-13T12:14:58.582Z,22.39
2018-04-13T12:15:58.623Z,22.34
2018-04-13T12:16:58.700Z,22.39
2018-04-13T12:17:58.703Z,22.37
2018-04-13T12:18:58.766Z,22.35
2018-04-13T12:19:58.783Z,22.39
2018-04-13T12:20:59.085Z,22.28
2018-04-13T12:21:58.869Z,22.23
2018-04-13T12:22:58.923Z,22.19
2018-04-13T12:23:59.189Z,22.09
2018-04-13T12:24:59.250Z,22.01
2018-04-13T12:25:59.033Z,21.99
2018-04-13T12:26:59.074Z,22.01
2018-04-13T12:27:59.121Z,22.06
2018-04-13T12:28:59.162Z,21.92
2018-04-13T12:29:59.238Z,21.95
2018-04-13T12:30:59.248Z,21.97
2018-04-13T12:31:59.284Z,21.88
2018-04-13T12:32:59.585Z,21.81
2018-04-13T12:33:59.629Z,21.76
2018-04-13T12:34:59.404Z,21.61
2018-04-13T12:36:00.178Z,21.56
2018-04-13T12:37:03.080Z,21.39
2018-04-13T12:38:02.961Z,21.32
2018-04-13T12:38:59.565Z,21.27
2018-04-13T12:40:00.994Z,21.13
2018-04-13T12:41:04.668Z,21.04
2018-04-13T12:41:59.685Z,20.99
2018-04-13T12:42:59.724Z,20.81
2018-04-13T12:44:00.021Z,20.54
2018-04-13T12:45:00.075Z,20.47
2018-04-13T12:45:59.849Z,20.33
2018-04-13T12:46:59.884Z,20.21
2018-04-13T12:47:59.923Z,20.05
2018-04-13T12:48:59.979Z,19.95
2018-04-13T12:50:00.534Z,19.8
2018-04-13T12:51:00.359Z,19.58
2018-04-13T12:52:00.084Z,19.48
2018-04-13T12:53:00.424Z,19.38
2018-04-13T12:54:00.443Z,19.29
2018-04-13T12:55:00.470Z,19.15
2018-04-13T12:56:00.283Z,19.05